sensor_id;sensor_type;location;lat;lon;timestamp;pressure;altitude;pressure_sealevel;temperature;humidity
9059;BME280;4564;42.034;25.834;2023-03-21T00:00:29;100244.03;;;7.09;100.00
9059;BME280;4564;42.034;25.834;2023-03-21T00:02:55;100234.78;;;7.11;100.00
9059;BME280;4564;42.034;25.834;2023-03-21T00:05:22;100229.03;;;7.06;100.00
9059;BME280;4564;42.034;25.834;2023-03-21T00:07:50;100220.75;;;7.08;100.00
9059;BME280;4564;42.034;25.834;2023-03-21T00:10:17;100230.38;;;7.02;99.34
9059;BME280;4564;42.034;25.834;2023-03-21T00:12:43;100225.63;;;6.88;97.65
9059;BME280;4564;42.034;25.834;2023-03-21T00:15:10;100226.59;;;6.63;98.21
9059;BME280;4564;42.034;25.834;2023-03-21T00:17:37;100224.38;;;6.58;98.15
9059;BME280;4564;42.034;25.834;2023-03-21T00:20:05;100229.56;;;6.52;97.37
9059;BME280;4564;42.034;25.834;2023-03-21T00:22:39;100233.41;;;6.41;97.38
9059;BME280;4564;42.034;25.834;2023-03-21T00:25:08;100231.19;;;6.37;98.17
9059;BME280;4564;42.034;25.834;2023-03-21T00:27:35;100223.47;;;6.42;98.35
9059;BME280;4564;42.034;25.834;2023-03-21T00:30:02;100229.56;;;6.52;99.72
9059;BME280;4564;42.034;25.834;2023-03-21T00:32:29;100226.03;;;6.59;99.11
9059;BME280;4564;42.034;25.834;2023-03-21T00:34:55;100223.69;;;6.64;99.25
9059;BME280;4564;42.034;25.834;2023-03-21T00:37:22;100226.75;;;6.69;99.16
9059;BME280;4564;42.034;25.834;2023-03-21T00:39:48;100222.88;;;6.72;99.63
9059;BME280;4564;42.034;25.834;2023-03-21T00:42:17;100229.47;;;6.78;100.00
9059;BME280;4564;42.034;25.834;2023-03-21T00:44:44;100218.69;;;6.78;99.24
9059;BME280;4564;42.034;25.834;2023-03-21T00:47:11;100218.34;;;6.81;100.00
9059;BME280;4564;42.034;25.834;2023-03-21T00:49:38;100217.53;;;6.80;100.00
9059;BME280;4564;42.034;25.834;2023-03-21T00:52:06;100206.75;;;6.80;100.00
9059;BME280;4564;42.034;25.834;2023-03-21T00:54:33;100215.00;;;6.79;99.80
9059;BME280;4564;42.034;25.834;2023-03-21T00:56:59;100206.38;;;6.75;100.00
9059;BME280;4564;42.034;25.834;2023-03-21T00:59:28;100210.56;;;6.69;100.00
9059;BME280;4564;42.034;25.834;2023-03-21T01:01:55;100215.16;;;6.69;100.00
9059;BME280;4564;42.034;25.834;2023-03-21T01:04:24;100206.03;;;6.70;100.00
9059;BME280;4564;42.034;25.834;2023-03-21T01:06:52;100211.91;;;6.65;99.74
9059;BME280;4564;42.034;25.834;2023-03-21T01:09:19;100204.16;;;6.62;98.11
9059;BME280;4564;42.034;25.834;2023-03-21T01:11:47;100204.66;;;6.58;98.32
9059;BME280;4564;42.034;25.834;2023-03-21T01:14:14;100209.88;;;6.59;99.33
9059;BME280;4564;42.034;25.834;2023-03-21T01:16:42;100198.94;;;6.61;99.69
9059;BME280;4564;42.034;25.834;2023-03-21T01:19:10;100192.19;;;6.65;100.00
9059;BME280;4564;42.034;25.834;2023-03-21T01:21:38;100186.84;;;6.81;100.00
9059;BME280;4564;42.034;25.834;2023-03-21T01:24:05;100187.34;;;6.77;100.00
9059;BME280;4564;42.034;25.834;2023-03-21T01:26:31;100184.13;;;6.73;100.00
9059;BME280;4564;42.034;25.834;2023-03-21T01:28:58;100183.13;;;6.74;100.00
9059;BME280;4564;42.034;25.834;2023-03-21T01:31:25;100181.09;;;6.68;100.00
9059;BME280;4564;42.034;25.834;2023-03-21T01:33:53;100178.75;;;6.73;100.00
9059;BME280;4564;42.034;25.834;2023-03-21T01:36:22;100176.72;;;6.75;100.00
9059;BME280;4564;42.034;25.834;2023-03-21T01:38:49;100171.31;;;6.75;100.00
9059;BME280;4564;42.034;25.834;2023-03-21T01:41:17;100170.47;;;6.66;100.00
9059;BME280;4564;42.034;25.834;2023-03-21T01:43:45;100173.97;;;6.51;100.00
9059;BME280;4564;42.034;25.834;2023-03-21T01:48:58;100160.84;;;-96.78;99.88
9059;BME280;4564;42.034;25.834;2023-03-21T01:51:26;100160.34;;;6.52;98.94
9059;BME280;4564;42.034;25.834;2023-03-21T01:53:54;100148.34;;;6.47;99.72
9059;BME280;4564;42.034;25.834;2023-03-21T01:56:22;100155.06;;;6.43;99.29
9059;BME280;4564;42.034;25.834;2023-03-21T01:58:49;100143.97;;;6.46;99.99
9059;BME280;4564;42.034;25.834;2023-03-21T02:01:17;100145.63;;;6.39;99.02
9059;BME280;4564;42.034;25.834;2023-03-21T02:03:47;100141.53;;;6.26;98.67
9059;BME280;4564;42.034;25.834;2023-03-21T02:06:20;100131.44;;;6.20;99.20
9059;BME280;4564;42.034;25.834;2023-03-21T02:08:50;100132.75;;;6.08;98.38
9059;BME280;4564;42.034;25.834;2023-03-21T02:11:17;100130.69;;;6.02;100.00
9059;BME280;4564;42.034;25.834;2023-03-21T02:13:45;100135.91;;;6.04;100.00
9059;BME280;4564;42.034;25.834;2023-03-21T02:16:13;100127.50;;;5.99;100.00
9059;BME280;4564;42.034;25.834;2023-03-21T02:18:45;100126.31;;;6.01;100.00
9059;BME280;4564;42.034;25.834;2023-03-21T02:21:25;100129.84;;;6.02;100.00
9059;BME280;4564;42.034;25.834;2023-03-21T02:29:38;100109.13;;;6.02;100.00
9059;BME280;4564;42.034;25.834;2023-03-21T02:32:10;100120.06;;;6.01;100.00
9059;BME280;4564;42.034;25.834;2023-03-21T02:34:47;100113.19;;;5.98;100.00
9059;BME280;4564;42.034;25.834;2023-03-21T02:37:22;100116.88;;;6.05;100.00
9059;BME280;4564;42.034;25.834;2023-03-21T02:39:55;100118.63;;;6.14;100.00
9059;BME280;4564;42.034;25.834;2023-03-21T02:42:27;100119.13;;;6.18;100.00
9059;BME280;4564;42.034;25.834;2023-03-21T02:44:57;100117.28;;;6.26;100.00
9059;BME280;4564;42.034;25.834;2023-03-21T02:47:27;100111.94;;;6.35;100.00
9059;BME280;4564;42.034;25.834;2023-03-21T02:49:55;100120.69;;;6.28;100.00
9059;BME280;4564;42.034;25.834;2023-03-21T02:52:25;100118.66;;;6.30;100.00
9059;BME280;4564;42.034;25.834;2023-03-21T02:54:54;100116.31;;;6.36;100.00
9059;BME280;4564;42.034;25.834;2023-03-21T02:57:21;100122.56;;;6.44;100.00
9059;BME280;4564;42.034;25.834;2023-03-21T02:59:48;100115.50;;;6.51;100.00
9059;BME280;4564;42.034;25.834;2023-03-21T03:02:15;100108.28;;;6.60;100.00
9059;BME280;4564;42.034;25.834;2023-03-21T03:04:44;100099.69;;;6.64;100.00
9059;BME280;4564;42.034;25.834;2023-03-21T03:07:15;100108.28;;;6.68;100.00
9059;BME280;4564;42.034;25.834;2023-03-21T03:09:50;100111.34;;;6.73;100.00
9059;BME280;4564;42.034;25.834;2023-03-21T03:12:21;100106.97;;;6.80;100.00
9059;BME280;4564;42.034;25.834;2023-03-21T03:14:51;100109.31;;;6.91;100.00
9059;BME280;4564;42.034;25.834;2023-03-21T03:17:21;100107.63;;;6.98;100.00
9059;BME280;4564;42.034;25.834;2023-03-21T03:22:36;100099.53;;;7.06;100.00
9059;BME280;4564;42.034;25.834;2023-03-21T03:25:06;100105.59;;;7.08;100.00
9059;BME280;4564;42.034;25.834;2023-03-21T03:27:36;100099.88;;;7.11;100.00
9059;BME280;4564;42.034;25.834;2023-03-21T03:30:05;100106.97;;;7.12;100.00
9059;BME280;4564;42.034;25.834;2023-03-21T03:32:34;100116.72;;;7.13;99.75
9059;BME280;4564;42.034;25.834;2023-03-21T03:35:01;100113.84;;;7.15;98.28
9059;BME280;4564;42.034;25.834;2023-03-21T03:37:29;100112.69;;;7.18;99.10
9059;BME280;4564;42.034;25.834;2023-03-21T03:39:59;100111.16;;;7.23;98.58
9059;BME280;4564;42.034;25.834;2023-03-21T03:42:33;100109.97;;;7.26;99.39
9059;BME280;4564;42.034;25.834;2023-03-21T03:45:00;100104.41;;;7.27;98.58
9059;BME280;4564;42.034;25.834;2023-03-21T03:47:28;100111.66;;;7.27;98.66
9059;BME280;4564;42.034;25.834;2023-03-21T03:50:00;100115.72;;;7.23;99.05
9059;BME280;4564;42.034;25.834;2023-03-21T03:52:28;100109.81;;;7.19;98.05
9059;BME280;4564;42.034;25.834;2023-03-21T03:54:56;100115.72;;;7.06;99.37
9059;BME280;4564;42.034;25.834;2023-03-21T03:57:23;100119.09;;;7.08;98.66
9059;BME280;4564;42.034;25.834;2023-03-21T03:59:52;100125.47;;;7.07;98.72
9059;BME280;4564;42.034;25.834;2023-03-21T04:02:19;100125.00;;;7.12;98.85
9059;BME280;4564;42.034;25.834;2023-03-21T04:04:46;100132.91;;;7.13;99.28
9059;BME280;4564;42.034;25.834;2023-03-21T04:07:12;100126.50;;;7.14;99.56
9059;BME280;4564;42.034;25.834;2023-03-21T04:09:39;100129.38;;;7.05;98.95
9059;BME280;4564;42.034;25.834;2023-03-21T04:12:06;100124.16;;;7.03;98.08
9059;BME280;4564;42.034;25.834;2023-03-21T04:14:33;100131.22;;;6.88;98.04
9059;BME280;4564;42.034;25.834;2023-03-21T04:17:01;100128.16;;;6.75;96.51
9059;BME280;4564;42.034;25.834;2023-03-21T04:19:28;100136.41;;;6.65;97.77
9059;BME280;4564;42.034;25.834;2023-03-21T04:21:54;100131.56;;;6.69;97.83
9059;BME280;4564;42.034;25.834;2023-03-21T04:24:21;100144.16;;;6.60;98.38
9059;BME280;4564;42.034;25.834;2023-03-21T04:26:47;100146.84;;;6.60;99.12
9059;BME280;4564;42.034;25.834;2023-03-21T04:29:18;100146.69;;;6.70;99.54
9059;BME280;4564;42.034;25.834;2023-03-21T04:31:45;100149.91;;;6.65;98.88
9059;BME280;4564;42.034;25.834;2023-03-21T04:34:15;100151.94;;;6.63;100.00
9059;BME280;4564;42.034;25.834;2023-03-21T04:36:42;100150.75;;;6.66;100.00
9059;BME280;4564;42.034;25.834;2023-03-21T04:39:10;100150.91;;;6.64;100.00
9059;BME280;4564;42.034;25.834;2023-03-21T04:41:37;100151.25;;;6.69;100.00
9059;BME280;4564;42.034;25.834;2023-03-21T04:44:04;100144.72;;;6.80;99.91
9059;BME280;4564;42.034;25.834;2023-03-21T04:46:31;100139.31;;;6.72;99.30
9059;BME280;4564;42.034;25.834;2023-03-21T04:48:58;100150.06;;;6.56;100.00
9059;BME280;4564;42.034;25.834;2023-03-21T04:51:26;100144.00;;;6.62;100.00
9059;BME280;4564;42.034;25.834;2023-03-21T04:53:53;100149.41;;;6.70;100.00
9059;BME280;4564;42.034;25.834;2023-03-21T04:56:22;100150.09;;;6.88;100.00
9059;BME280;4564;42.034;25.834;2023-03-21T04:58:54;100149.78;;;6.99;100.00
9059;BME280;4564;42.034;25.834;2023-03-21T05:01:21;100141.50;;;7.09;99.67
9059;BME280;4564;42.034;25.834;2023-03-21T05:03:50;100148.75;;;7.08;98.49
9059;BME280;4564;42.034;25.834;2023-03-21T05:06:16;100142.88;;;7.05;98.90
9059;BME280;4564;42.034;25.834;2023-03-21T05:08:44;100144.53;;;7.14;99.17
9059;BME280;4564;42.034;25.834;2023-03-21T05:11:11;100139.13;;;7.30;98.39
9059;BME280;4564;42.034;25.834;2023-03-21T05:13:38;100151.47;;;7.33;97.74
9059;BME280;4564;42.034;25.834;2023-03-21T05:16:05;100150.94;;;7.45;97.05
9059;BME280;4564;42.034;25.834;2023-03-21T05:18:31;100150.75;;;7.47;97.50
9059;BME280;4564;42.034;25.834;2023-03-21T05:20:59;100155.44;;;7.69;96.82
9059;BME280;4564;42.034;25.834;2023-03-21T05:23:25;100145.66;;;7.76;96.84
9059;BME280;4564;42.034;25.834;2023-03-21T05:25:57;100146.94;;;7.96;96.47
9059;BME280;4564;42.034;25.834;2023-03-21T05:28:23;100142.09;;;8.23;95.42
9059;BME280;4564;42.034;25.834;2023-03-21T05:30:56;100144.34;;;8.50;93.44
9059;BME280;4564;42.034;25.834;2023-03-21T05:33:22;100154.44;;;9.10;92.12
9059;BME280;4564;42.034;25.834;2023-03-21T05:35:49;100158.13;;;9.54;90.26
9059;BME280;4564;42.034;25.834;2023-03-21T05:38:16;100157.56;;;9.88;88.21
9059;BME280;4564;42.034;25.834;2023-03-21T05:40:45;100161.50;;;10.00;86.81
9059;BME280;4564;42.034;25.834;2023-03-21T05:43:13;100166.81;;;9.94;86.96
9059;BME280;4564;42.034;25.834;2023-03-21T05:45:39;100169.81;;;9.99;87.17
9059;BME280;4564;42.034;25.834;2023-03-21T05:48:06;100182.84;;;10.03;87.70
9059;BME280;4564;42.034;25.834;2023-03-21T05:50:32;100175.38;;;10.35;87.22
9059;BME280;4564;42.034;25.834;2023-03-21T05:52:59;100179.53;;;10.67;86.62
9059;BME280;4564;42.034;25.834;2023-03-21T05:55:26;100167.75;;;11.17;86.67
9059;BME280;4564;42.034;25.834;2023-03-21T05:57:52;100177.00;;;11.99;83.63
9059;BME280;4564;42.034;25.834;2023-03-21T06:00:20;100179.47;;;12.70;79.09
9059;BME280;4564;42.034;25.834;2023-03-21T06:02:47;100178.31;;;12.98;77.60
9059;BME280;4564;42.034;25.834;2023-03-21T06:05:14;100188.69;;;13.36;76.32
9059;BME280;4564;42.034;25.834;2023-03-21T06:07:40;100193.09;;;13.90;75.67
9059;BME280;4564;42.034;25.834;2023-03-21T06:10:07;100195.44;;;14.70;73.28
9059;BME280;4564;42.034;25.834;2023-03-21T06:12:34;100190.22;;;15.94;69.47
9059;BME280;4564;42.034;25.834;2023-03-21T06:15:01;100188.31;;;17.34;63.25
9059;BME280;4564;42.034;25.834;2023-03-21T06:17:31;100191.09;;;17.98;60.36
9059;BME280;4564;42.034;25.834;2023-03-21T06:19:57;100194.63;;;18.80;57.12
9059;BME280;4564;42.034;25.834;2023-03-21T06:22:25;100194.28;;;19.34;54.68
9059;BME280;4564;42.034;25.834;2023-03-21T06:24:51;100194.13;;;19.12;55.46
9059;BME280;4564;42.034;25.834;2023-03-21T06:27:18;100194.75;;;19.14;55.85
9059;BME280;4564;42.034;25.834;2023-03-21T06:29:45;100197.22;;;19.27;55.50
9059;BME280;4564;42.034;25.834;2023-03-21T06:32:12;100191.78;;;19.04;55.00
9059;BME280;4564;42.034;25.834;2023-03-21T06:34:40;100191.31;;;18.32;55.75
9059;BME280;4564;42.034;25.834;2023-03-21T06:37:07;100190.97;;;18.28;57.66
9059;BME280;4564;42.034;25.834;2023-03-21T06:39:33;100198.63;;;18.61;56.29
9059;BME280;4564;42.034;25.834;2023-03-21T06:42:00;100193.97;;;18.90;55.14
9059;BME280;4564;42.034;25.834;2023-03-21T06:44:27;100187.28;;;19.26;54.95
9059;BME280;4564;42.034;25.834;2023-03-21T06:46:53;100193.94;;;19.30;53.84
9059;BME280;4564;42.034;25.834;2023-03-21T06:49:20;100190.66;;;19.45;54.47
9059;BME280;4564;42.034;25.834;2023-03-21T06:51:48;100198.19;;;20.16;51.73
9059;BME280;4564;42.034;25.834;2023-03-21T06:54:15;100183.03;;;19.97;50.74
9059;BME280;4564;42.034;25.834;2023-03-21T06:56:43;100188.72;;;18.14;55.30
9059;BME280;4564;42.034;25.834;2023-03-21T06:59:09;100195.38;;;18.41;55.45
9059;BME280;4564;42.034;25.834;2023-03-21T07:01:36;100189.50;;;19.01;53.57
9059;BME280;4564;42.034;25.834;2023-03-21T07:04:03;100186.53;;;19.76;52.50
9059;BME280;4564;42.034;25.834;2023-03-21T07:06:30;100180.00;;;19.82;51.10
9059;BME280;4564;42.034;25.834;2023-03-21T07:08:58;100181.44;;;20.01;50.52
9059;BME280;4564;42.034;25.834;2023-03-21T07:11:27;100180.09;;;20.80;48.77
9059;BME280;4564;42.034;25.834;2023-03-21T07:13:53;100176.06;;;21.37;47.58
9059;BME280;4564;42.034;25.834;2023-03-21T07:16:20;100172.38;;;21.04;48.14
9059;BME280;4564;42.034;25.834;2023-03-21T07:18:47;100164.88;;;21.00;47.95
9059;BME280;4564;42.034;25.834;2023-03-21T07:21:14;100171.31;;;20.83;47.56
9059;BME280;4564;42.034;25.834;2023-03-21T07:23:40;100166.81;;;20.77;48.99
9059;BME280;4564;42.034;25.834;2023-03-21T07:26:08;100175.19;;;21.09;47.53
9059;BME280;4564;42.034;25.834;2023-03-21T07:28:35;100173.00;;;19.91;49.23
9059;BME280;4564;42.034;25.834;2023-03-21T07:31:02;100177.34;;;19.53;52.43
9059;BME280;4564;42.034;25.834;2023-03-21T07:33:30;100176.91;;;19.61;52.37
9059;BME280;4564;42.034;25.834;2023-03-21T07:35:57;100190.13;;;19.59;52.50
9059;BME280;4564;42.034;25.834;2023-03-21T07:38:24;100181.28;;;19.74;52.33
9059;BME280;4564;42.034;25.834;2023-03-21T07:40:51;100174.09;;;19.56;52.04
9059;BME280;4564;42.034;25.834;2023-03-21T07:43:19;100172.84;;;19.36;53.22
9059;BME280;4564;42.034;25.834;2023-03-21T07:45:45;100173.06;;;19.46;52.38
9059;BME280;4564;42.034;25.834;2023-03-21T07:48:12;100165.22;;;19.54;52.34
9059;BME280;4564;42.034;25.834;2023-03-21T07:50:39;100177.34;;;18.97;53.48
9059;BME280;4564;42.034;25.834;2023-03-21T07:53:06;100175.56;;;18.39;55.16
9059;BME280;4564;42.034;25.834;2023-03-21T07:55:33;100171.03;;;18.33;56.89
9059;BME280;4564;42.034;25.834;2023-03-21T07:58:00;100172.19;;;18.37;55.77
9059;BME280;4564;42.034;25.834;2023-03-21T08:00:28;100180.53;;;18.77;55.04
9059;BME280;4564;42.034;25.834;2023-03-21T08:02:56;100173.03;;;18.49;56.73
9059;BME280;4564;42.034;25.834;2023-03-21T08:05:23;100168.25;;;18.44;55.52
9059;BME280;4564;42.034;25.834;2023-03-21T08:07:50;100179.03;;;18.34;56.74
9059;BME280;4564;42.034;25.834;2023-03-21T08:10:17;100186.31;;;18.29;58.28
9059;BME280;4564;42.034;25.834;2023-03-21T08:12:44;100186.25;;;19.15;54.76
9059;BME280;4564;42.034;25.834;2023-03-21T08:15:11;100182.19;;;19.63;52.15
9059;BME280;4564;42.034;25.834;2023-03-21T08:17:39;100173.50;;;19.88;52.38
9059;BME280;4564;42.034;25.834;2023-03-21T08:20:10;100175.94;;;19.39;52.71
9059;BME280;4564;42.034;25.834;2023-03-21T08:22:37;100170.19;;;20.63;51.30
9059;BME280;4564;42.034;25.834;2023-03-21T08:25:05;100161.34;;;21.04;48.40
9059;BME280;4564;42.034;25.834;2023-03-21T08:27:32;100169.47;;;20.67;48.61
9059;BME280;4564;42.034;25.834;2023-03-21T08:29:59;100166.28;;;20.37;49.74
9059;BME280;4564;42.034;25.834;2023-03-21T08:32:26;100159.81;;;19.14;53.54
9059;BME280;4564;42.034;25.834;2023-03-21T08:34:58;100159.59;;;18.76;55.18
9059;BME280;4564;42.034;25.834;2023-03-21T08:37:25;100151.47;;;18.81;55.00
9059;BME280;4564;42.034;25.834;2023-03-21T08:39:51;100153.06;;;19.22;54.53
9059;BME280;4564;42.034;25.834;2023-03-21T08:42:18;100144.41;;;18.73;55.29
9059;BME280;4564;42.034;25.834;2023-03-21T08:44:45;100142.69;;;19.12;55.71
9059;BME280;4564;42.034;25.834;2023-03-21T08:47:12;100148.03;;;19.02;55.56
9059;BME280;4564;42.034;25.834;2023-03-21T08:49:38;100153.91;;;18.66;56.81
9059;BME280;4564;42.034;25.834;2023-03-21T08:52:07;100140.09;;;19.06;56.98
9059;BME280;4564;42.034;25.834;2023-03-21T08:54:34;100137.28;;;18.72;56.15
9059;BME280;4564;42.034;25.834;2023-03-21T08:57:01;100130.81;;;18.95;56.11
9059;BME280;4564;42.034;25.834;2023-03-21T08:59:28;100128.41;;;18.70;56.89
9059;BME280;4564;42.034;25.834;2023-03-21T09:01:54;100123.44;;;18.84;57.09
9059;BME280;4564;42.034;25.834;2023-03-21T09:04:21;100123.97;;;18.81;56.84
9059;BME280;4564;42.034;25.834;2023-03-21T09:06:50;100120.41;;;18.69;57.26
9059;BME280;4564;42.034;25.834;2023-03-21T09:09:18;100118.09;;;18.37;57.86
9059;BME280;4564;42.034;25.834;2023-03-21T09:11:44;100103.91;;;18.17;58.65
9059;BME280;4564;42.034;25.834;2023-03-21T09:14:11;100103.22;;;17.98;59.73
9059;BME280;4564;42.034;25.834;2023-03-21T09:16:37;100099.50;;;17.58;60.71
9059;BME280;4564;42.034;25.834;2023-03-21T09:19:05;100100.94;;;17.60;60.96
9059;BME280;4564;42.034;25.834;2023-03-21T09:21:32;100094.78;;;17.24;62.69
9059;BME280;4564;42.034;25.834;2023-03-21T09:23:59;100096.59;;;17.30;62.51
9059;BME280;4564;42.034;25.834;2023-03-21T09:26:28;100091.38;;;17.40;62.17
9059;BME280;4564;42.034;25.834;2023-03-21T09:28:55;100097.97;;;17.62;61.20
9059;BME280;4564;42.034;25.834;2023-03-21T09:31:22;100097.81;;;17.45;62.59
9059;BME280;4564;42.034;25.834;2023-03-21T09:33:50;100088.91;;;17.73;62.20
9059;BME280;4564;42.034;25.834;2023-03-21T09:36:16;100093.66;;;18.13;60.88
9059;BME280;4564;42.034;25.834;2023-03-21T09:38:46;100085.84;;;18.33;60.35
9059;BME280;4564;42.034;25.834;2023-03-21T09:41:29;100083.19;;;18.38;59.60
9059;BME280;4564;42.034;25.834;2023-03-21T09:44:02;100084.97;;;18.44;59.64
9059;BME280;4564;42.034;25.834;2023-03-21T09:46:34;100073.69;;;18.29;60.44
9059;BME280;4564;42.034;25.834;2023-03-21T09:49:03;100080.88;;;18.58;59.94
9059;BME280;4564;42.034;25.834;2023-03-21T09:51:32;100068.91;;;18.64;59.03
9059;BME280;4564;42.034;25.834;2023-03-21T09:54:02;100065.81;;;19.06;59.20
9059;BME280;4564;42.034;25.834;2023-03-21T09:56:32;100068.34;;;19.24;57.35
9059;BME280;4564;42.034;25.834;2023-03-21T09:59:00;100064.19;;;19.38;56.91
9059;BME280;4564;42.034;25.834;2023-03-21T10:01:30;100065.69;;;19.29;56.58
9059;BME280;4564;42.034;25.834;2023-03-21T10:03:59;100068.84;;;19.71;55.98
9059;BME280;4564;42.034;25.834;2023-03-21T10:06:27;100066.75;;;19.95;55.36
9059;BME280;4564;42.034;25.834;2023-03-21T10:08:56;100061.94;;;20.07;54.69
9059;BME280;4564;42.034;25.834;2023-03-21T10:11:26;100061.75;;;20.13;54.64
9059;BME280;4564;42.034;25.834;2023-03-21T10:13:56;100057.56;;;20.49;53.52
9059;BME280;4564;42.034;25.834;2023-03-21T10:16:26;100069.25;;;20.18;54.05
9059;BME280;4564;42.034;25.834;2023-03-21T10:18:53;100066.75;;;19.95;55.37
9059;BME280;4564;42.034;25.834;2023-03-21T10:21:21;100055.34;;;20.51;54.65
9059;BME280;4564;42.034;25.834;2023-03-21T10:23:49;100055.16;;;20.85;52.92
9059;BME280;4564;42.034;25.834;2023-03-21T10:26:16;100043.19;;;20.47;52.99
9059;BME280;4564;42.034;25.834;2023-03-21T10:28:44;100052.56;;;20.73;52.94
9059;BME280;4564;42.034;25.834;2023-03-21T10:31:15;100053.56;;;20.89;52.25
9059;BME280;4564;42.034;25.834;2023-03-21T10:33:43;100041.75;;;20.67;52.96
9059;BME280;4564;42.034;25.834;2023-03-21T10:36:12;100033.94;;;20.59;53.64
9059;BME280;4564;42.034;25.834;2023-03-21T10:38:43;100031.03;;;20.97;51.83
9059;BME280;4564;42.034;25.834;2023-03-21T10:41:10;100025.38;;;20.82;52.64
9059;BME280;4564;42.034;25.834;2023-03-21T10:43:38;100031.75;;;20.87;51.92
9059;BME280;4564;42.034;25.834;2023-03-21T10:46:06;100039.59;;;20.74;51.81
9059;BME280;4564;42.034;25.834;2023-03-21T10:48:38;100039.16;;;20.33;53.02
9059;BME280;4564;42.034;25.834;2023-03-21T10:51:05;100039.81;;;20.40;53.54
9059;BME280;4564;42.034;25.834;2023-03-21T10:53:34;100043.78;;;20.49;53.01
9059;BME280;4564;42.034;25.834;2023-03-21T10:56:01;100043.69;;;20.23;53.80
9059;BME280;4564;42.034;25.834;2023-03-21T10:58:33;100043.50;;;20.29;54.26
9059;BME280;4564;42.034;25.834;2023-03-21T11:01:04;100041.84;;;20.28;54.01
9059;BME280;4564;42.034;25.834;2023-03-21T11:03:34;100033.50;;;20.23;54.52
9059;BME280;4564;42.034;25.834;2023-03-21T11:06:04;100032.84;;;20.16;54.97
9059;BME280;4564;42.034;25.834;2023-03-21T11:08:36;100035.16;;;20.02;54.36
9059;BME280;4564;42.034;25.834;2023-03-21T11:11:04;100030.22;;;20.04;53.69
9059;BME280;4564;42.034;25.834;2023-03-21T11:13:36;100022.97;;;20.20;53.94
9059;BME280;4564;42.034;25.834;2023-03-21T11:16:04;100014.66;;;20.37;53.48
9059;BME280;4564;42.034;25.834;2023-03-21T11:18:31;100008.41;;;20.25;53.97
9059;BME280;4564;42.034;25.834;2023-03-21T11:21:01;99996.38;;;20.31;54.11
9059;BME280;4564;42.034;25.834;2023-03-21T11:23:30;99983.13;;;20.49;53.30
9059;BME280;4564;42.034;25.834;2023-03-21T11:25:59;99971.56;;;20.31;53.40
9059;BME280;4564;42.034;25.834;2023-03-21T11:28:35;99963.66;;;19.91;54.56
9059;BME280;4564;42.034;25.834;2023-03-21T11:31:02;99952.09;;;19.50;56.29
9059;BME280;4564;42.034;25.834;2023-03-21T11:33:30;99946.94;;;19.37;56.87
9059;BME280;4564;42.034;25.834;2023-03-21T11:35:59;99952.75;;;19.57;55.81
9059;BME280;4564;42.034;25.834;2023-03-21T11:38:28;99951.81;;;19.13;56.50
9059;BME280;4564;42.034;25.834;2023-03-21T11:40:57;99945.31;;;19.19;56.82
9059;BME280;4564;42.034;25.834;2023-03-21T11:43:25;99931.94;;;19.11;57.64
9059;BME280;4564;42.034;25.834;2023-03-21T11:45:55;99926.44;;;19.28;57.19
9059;BME280;4564;42.034;25.834;2023-03-21T11:48:22;99934.75;;;19.50;57.00
9059;BME280;4564;42.034;25.834;2023-03-21T11:50:49;99933.09;;;19.70;56.59
9059;BME280;4564;42.034;25.834;2023-03-21T11:53:24;99931.22;;;19.98;55.18
9059;BME280;4564;42.034;25.834;2023-03-21T11:55:58;99921.38;;;20.02;55.11
9059;BME280;4564;42.034;25.834;2023-03-21T11:58:36;99915.41;;;19.88;55.41
9059;BME280;4564;42.034;25.834;2023-03-21T12:01:06;99906.34;;;19.66;56.35
9059;BME280;4564;42.034;25.834;2023-03-21T12:03:39;99915.44;;;19.66;56.01
9059;BME280;4564;42.034;25.834;2023-03-21T12:06:12;99920.16;;;19.93;56.21
9059;BME280;4564;42.034;25.834;2023-03-21T12:08:44;99916.06;;;19.95;55.22
9059;BME280;4564;42.034;25.834;2023-03-21T12:11:18;99912.84;;;20.30;55.50
9059;BME280;4564;42.034;25.834;2023-03-21T12:13:53;99912.47;;;20.43;54.29
9059;BME280;4564;42.034;25.834;2023-03-21T12:16:26;99910.25;;;20.72;53.00
9059;BME280;4564;42.034;25.834;2023-03-21T12:19:12;99907.41;;;20.35;54.59
9059;BME280;4564;42.034;25.834;2023-03-21T12:21:42;99902.16;;;20.61;54.21
9059;BME280;4564;42.034;25.834;2023-03-21T12:24:14;99900.81;;;20.36;53.68
9059;BME280;4564;42.034;25.834;2023-03-21T12:26:46;99890.13;;;20.40;53.98
9059;BME280;4564;42.034;25.834;2023-03-21T12:29:21;99881.47;;;20.31;54.17
9059;BME280;4564;42.034;25.834;2023-03-21T12:31:54;99888.75;;;20.42;54.45
9059;BME280;4564;42.034;25.834;2023-03-21T12:34:28;99881.41;;;20.53;53.78
9059;BME280;4564;42.034;25.834;2023-03-21T12:37:02;99875.34;;;20.51;54.34
9059;BME280;4564;42.034;25.834;2023-03-21T12:39:31;99870.78;;;20.35;54.42
9059;BME280;4564;42.034;25.834;2023-03-21T12:42:05;99865.13;;;19.98;56.06
9059;BME280;4564;42.034;25.834;2023-03-21T12:44:36;99850.25;;;19.99;56.18
9059;BME280;4564;42.034;25.834;2023-03-21T12:47:03;99848.28;;;19.94;53.08
9059;BME280;4564;42.034;25.834;2023-03-21T12:49:33;99841.72;;;19.74;52.98
9059;BME280;4564;42.034;25.834;2023-03-21T12:52:02;99848.09;;;20.01;52.84
9059;BME280;4564;42.034;25.834;2023-03-21T12:54:30;99848.84;;;20.23;51.90
9059;BME280;4564;42.034;25.834;2023-03-21T12:56:59;99846.00;;;19.86;52.69
9059;BME280;4564;42.034;25.834;2023-03-21T12:59:30;99835.28;;;19.63;53.18
9059;BME280;4564;42.034;25.834;2023-03-21T13:02:03;99841.00;;;19.83;52.91
9059;BME280;4564;42.034;25.834;2023-03-21T13:04:36;99851.81;;;19.90;52.44
9059;BME280;4564;42.034;25.834;2023-03-21T13:07:06;99860.34;;;20.15;53.00
9059;BME280;4564;42.034;25.834;2023-03-21T13:09:35;99861.22;;;20.47;52.11
9059;BME280;4564;42.034;25.834;2023-03-21T13:12:05;99853.63;;;20.60;50.91
9059;BME280;4564;42.034;25.834;2023-03-21T13:14:40;99847.91;;;20.71;50.18
9059;BME280;4564;42.034;25.834;2023-03-21T13:17:09;99842.69;;;20.75;50.76
9059;BME280;4564;42.034;25.834;2023-03-21T13:19:39;99856.00;;;20.83;49.19
9059;BME280;4564;42.034;25.834;2023-03-21T13:22:10;99855.19;;;20.87;50.33